Edmonson, TX (79032)

9:45 PM CDT on September 19, 2014 (GMT -0500)
Oasis - 79072 | Change Station
CLOSE
Current Station
Personal Weather Station
Location: Plainview, TX
Elevation: 3386 ft
Nearby Weather Stations
Active Advisory: Areal Flood Watch

Elev 3386 ft 34.19 °N, 101.77 °W | Updated 12 minutes ago

Overcast
Overcast
67.8 °F
Feels Like 67.8 °F
N
3.7
Wind Variable Wind from ESE

Today
High -- | Low -- °F
--% Chance of Precip.
Yesterday
High -- | Low -- °F
Precip. -- in
7:33 AM 7:48 PM
Waning Crescent, 15% visible
Pressure 30.02 in
Visibility 10.0 miles
Clouds Scattered Clouds 1900 ft
Scattered Clouds 9500 ft
Overcast 11000 ft
Dew Point 66 °F
Humidity 94%
Rainfall 0.06 in
Snow Depth Not available.
UV 0 out of 12
Pollen 3.80 out of 12
Air Quality Not available.
Flu Activity Not available.
METAR KPVW 200235Z AUTO 14003KT 10SM SCT019 SCT095 OVC110 21/20 A3002 RMK AO2 T02110201

More Conditions Fewer Conditions

Pressure 30.02 in
Visibility 10.0 miles
Clouds Scattered Clouds 1900 ft
Scattered Clouds 9500 ft
Overcast 11000 ft
Dew Point 66 °F
Humidity 94%
Rainfall 0.06 in
Snow Depth Not available.
UV 0 out of 12
Pollen 3.80 out of 12
Air Quality Not available.
Flu Activity Not available.
METAR KPVW 200235Z AUTO 14003KT 10SM SCT019 SCT095 OVC110 21/20 A3002 RMK AO2 T02110201

More Conditions Fewer Conditions

Nowcast | as of 9:14 PM CDT on September 19, 2014

Through 11 PM...scattered showers and perhaps an isolated thunderstorm...will continue to affect the southern Texas Panhandle...South Plains and rolling plains. Although not everyone will see rainfall...the strongest showers will be capable of producing brief downpours. Rainfall totals of a few hundredths to a couple tenths of an inch will be common...with localized one to three inch amounts.

×

10-Day Weather Forecast

Almanac

Astronomy

Sep. 19, 2014 Rise Set
Actual Time 7:33 AM CDT 7:48 PM CDT
Civil Twilight 7:08 AM CDT 8:13 PM CDT
Nautical Twilight 6:38 AM CDT 8:42 PM CDT
Astronomical Twilight 6:09 AM CDT 9:11 PM CDT
Moon 3:29 AM CDT (9/19) 5:10 PM CDT (9/19)
Length of Visible Light 13h 04m
Length of Day
12h 14m
Tomorrow will be 2m 7s shorter.
Waning Crescent, 15% of the Moon is Illuminated
Today
Waning Crescent
Sep 24
New
Oct 1
First Quarter
Oct 8
Full
Oct 15
Last Quarter

Today's Extremes

State Highs State Lows

Community

WunderPhotos

Upload Photos

1,754,768 photos uploaded!

WunderBlogs® & News

Nearby

Snow Depth

Station Depth Elevation
No new snow has been reported.

Earthquake Activity

City Distance Mag. Time & Date
No recent earthquake activity has been reported nearby.
Minimum magnitude displayed is 2.5.

Coastal Water Temperatures

Place Temperature
No Stations Reporting

Nearby Weather Stations